Flight Track Log - Related Links

Times and Time Zones

All times are in EDT time to prevent confusion due to time zone crossing. See the EJA131 flight status page for this flight to view local times or setup timezone preferences in your user account.

Time Position Orientation Groundspeed Altitude Reporting Facility
EDT Latitude Longitude Course Direction KTS MPH feet Rate Location/Type
Sun 11:32:50 AM 27.9500 -82.5333 211° Southwest 204 235 1,000  Level Tampa TRACON
Sun 11:33:44 AM 27.9000 -82.5667 211° Southwest 237 273 3,900 3,444 Climbing Tampa TRACON
Sun 11:34:38 AM 27.8667 -82.6167 233° Southwest 270 311 7,200 3,237 Climbing Tampa TRACON
Sun 11:36:16 AM 27.9703 -82.6928 327° Northwest 293 337 12,100 2,696 Climbing Jacksonville Center
Sun 11:37:16 AM 28.0600 -82.6786 North 302 348 14,300 2,250 Climbing Jacksonville Center
Sun 11:38:16 AM 28.1561 -82.6667 North 316 364 16,600 2,150 Climbing Jacksonville Center
Sun 11:39:16 AM 28.2539 -82.6500 North 337 388 18,600 1,950 Climbing Jacksonville Center
Sun 11:40:16 AM 28.3542 -82.6356 North 348 400 20,500 1,750 Climbing Jacksonville Center
Sun 11:41:16 AM 28.4564 -82.6211 North 353 406 22,100 1,550 Climbing Jacksonville Center
Sun 11:42:16 AM 28.5608 -82.6067 North 369 425 23,600 1,500 Climbing Jacksonville Center
Sun 11:43:16 AM 28.6692 -82.5992 North 374 430 25,100 1,600 Climbing Jacksonville Center
Sun 11:44:16 AM 28.7714 -82.5964 North 374 430 26,800 1,550 Climbing Jacksonville Center
Sun 11:45:16 AM 28.8736 -82.5914 North 369 425 28,200 1,250 Climbing Jacksonville Center
Sun 11:46:16 AM 28.9781 -82.5886 North 364 419 29,300 1,150 Climbing Jacksonville Center
Sun 11:47:16 AM 29.0844 -82.5861 North 369 425 30,500 1,150 Climbing Jacksonville Center
Sun 11:48:16 AM 29.1889 -82.5833 North 369 425 31,600 750 Climbing Jacksonville Center
Sun 11:49:16 AM 29.2953 -82.5783 North 369 425 32,000 200 Climbing Jacksonville Center
Sun 11:50:16 AM 29.4122 -82.5756 North 388 447 32,000  Level Jacksonville Center
Sun 11:51:16 AM 29.5269 -82.5703 North 402 463 32,000 250 Level Jacksonville Center
Sun 11:52:16 AM 29.6481 -82.5653 North 418 481 32,500 500 Climbing Jacksonville Center
Sun 11:53:16 AM 29.7650 -82.5625 North 418 481 33,000 250 Climbing Jacksonville Center
Sun 11:54:16 AM 29.8736 -82.5597 North 425 489 33,000  Level Jacksonville Center
Sun 11:55:16 AM 29.9925 -82.5569 North 425 489 33,000  Level Jacksonville Center
Sun 11:56:16 AM 30.1242 -82.5564 360° North 425 489 33,000  Level Jacksonville Center
Sun 11:57:16 AM 30.2472 -82.5511 North 425 489 33,000  Level Jacksonville Center
Sun 11:58:16 AM 30.3664 -82.5483 North 425 489 33,000  Level Jacksonville Center
Sun 11:59:16 AM 30.4894 -82.5431 North 425 489 33,000  Level Jacksonville Center
Sun 12:00:16 PM 30.5897 -82.5403 North 430 495 33,000  Level Jacksonville Center
Sun 12:01:16 PM 30.7233 -82.5372 North 435 501 33,000  Level Jacksonville Center
Sun 12:02:16 PM 30.8444 -82.5344 North 435 501 33,000  Level Jacksonville Center
Sun 12:03:16 PM 30.9656 -82.5292 North 440 506 33,000 -350 Level Jacksonville Center
Sun 12:04:16 PM 31.0886 -82.5264 North 435 501 32,300 -900 Descending Jacksonville Center
Sun 12:05:16 PM 31.2056 -82.5208 North 435 501 31,200 -1,050 Descending Jacksonville Center
Sun 12:06:16 PM 31.3286 -82.5206 360° North 435 501 30,200 -1,050 Descending Jacksonville Center
Sun 12:07:16 PM 31.4644 -82.5103 North 444 511 29,100 -421 Descending Jacksonville Center
Sun 12:09:07 PM 31.6908 -82.4867 North 448 516 29,000 -386 Descending Atlanta Center
Sun 12:10:07 PM 31.8139 -82.4675 North 448 516 28,000 -500 Descending Atlanta Center
Sun 12:11:07 PM 31.9408 -82.4456 North 448 516 28,000  Level Atlanta Center
Sun 12:12:07 PM 32.0681 -82.4286 North 453 521 28,000  Level Atlanta Center
Sun 12:13:07 PM 32.1969 -82.4067 North 453 521 28,000  Level Atlanta Center
Sun 12:14:07 PM 32.3242 -82.3872 North 458 527 28,000  Level Atlanta Center
Sun 12:15:07 PM 32.4533 -82.3650 North 464 534 28,000  Level Atlanta Center
Sun 12:16:07 PM 32.5825 -82.3453 North 464 534 28,000  Level Atlanta Center
Sun 12:17:07 PM 32.7114 -82.3256 North 464 534 28,000  Level Atlanta Center
Sun 12:18:07 PM 32.8428 -82.3031 North 464 534 28,000 -500 Level Atlanta Center
Sun 12:19:07 PM 32.9717 -82.2808 North 469 540 27,000 -500 Descending Atlanta Center
Sun 12:20:07 PM 33.1031 -82.2608 North 464 534 27,000  Level Atlanta Center
Sun 12:21:07 PM 33.2300 -82.2408 North 464 534 27,000  Level Atlanta Center
Sun 12:22:07 PM 33.3633 -82.2181 North 464 534 27,000  Level Atlanta Center
Sun 12:23:07 PM 33.4944 -82.1956 North 464 534 27,000  Level Atlanta Center
Sun 12:24:07 PM 33.6236 -82.1753 North 464 534 27,000  Level Atlanta Center
Sun 12:25:07 PM 33.7403 -82.1603 North 464 534 27,000  Level Atlanta Center
Sun 12:26:07 PM 33.8717 -82.1572 North 464 534 27,000 -400 Level Atlanta Center
Sun 12:27:07 PM 33.9981 -82.0994 21° North 464 534 26,200 -900 Descending Atlanta Center
Sun 12:28:07 PM 34.1136 -82.0139 32° Northeast 470 541 25,200 -1,500 Descending Atlanta Center
Sun 12:29:07 PM 34.2289 -81.9258 32° Northeast 476 548 23,200 -2,250 Descending Atlanta Center
Sun 12:30:07 PM 34.3381 -81.8450 31° Northeast 476 548 20,700 -2,100 Descending Atlanta Center
Sun 12:31:07 PM 34.4431 -81.7644 32° Northeast 455 524 19,000 -1,600 Descending Atlanta Center
Sun 12:31:22 PM 34.4803 -81.7431 25° Northeast 405 466 18,700 -1,400 Descending Atlanta Center
Sun 12:32:07 PM 34.5317 -81.6989 35° Northeast 417 480 17,600 -1,970 Descending Atlanta Center
Sun 12:32:29 PM 34.5708 -81.6700 31° Northeast 342 394 16,500 -2,458 Descending Atlanta Center
Sun 12:33:30 PM 34.6508 -81.6097 32° Northeast 339 390 14,200 -2,327 Descending Atlanta Center
Sun 12:34:07 PM 34.7003 -81.5728 32° Northeast 328 377 12,700 -1,970 Descending Atlanta Center
Sun 12:34:37 PM 34.7372 -81.5414 35° Northeast 322 371 12,000 -700 Descending Atlanta Center
Sun 12:35:07 PM 34.7656 -81.5028 48° Northeast 317 365 12,000  Level Atlanta Center
Sun 12:35:31 PM 34.7942 -81.4664 46° Northeast 328 377 12,000  Level Atlanta Center
Sun 12:36:07 PM 34.8286 -81.4222 46° Northeast 317 365 12,000 -358 Level Atlanta Center
Sun 12:36:38 PM 34.8611 -81.3783 48° Northeast 326 375 11,600 -800 Descending Atlanta Center
Sun 12:37:07 PM 34.8833 -81.3497 47° Northeast 317 365 11,200 -1,200 Descending Atlanta Center
Sun 12:37:33 PM 34.9181 -81.3056 46° Northeast 317 365 10,500 -1,400 Descending Atlanta Center
Sun 12:38:07 PM 34.9464 -81.2717 44° Northeast 317 365 9,800 -1,475 Descending Atlanta Center
Sun 12:38:34 PM 34.9767 -81.2300 48° Northeast 316 364 9,000 -800 Descending Atlanta Center
Sun 12:39:07 PM 35.0031 -81.1989 44° Northeast 306 352 9,000  Level Atlanta Center
Sun 12:39:29 PM 35.0314 -81.1622 47° Northeast 307 353 9,000  Level Atlanta Center
Sun 12:40:07 PM 35.0617 -81.1181 50° Northeast 306 352 9,000  Level Atlanta Center
Sun 12:40:23 PM 35.0861 -81.0894 44° Northeast 309 356 9,000  Level Atlanta Center
Sun 12:41:07 PM 35.1314 -81.0650 24° Northeast 296 341 9,000 -98 Level Atlanta Center
Sun 12:41:24 PM 35.1647 -81.0661 358° North 293 337 8,900 -1,067 Descending Atlanta Center
Sun 12:42:37 PM 35.2528 -81.0758 355° North 249 287 7,400 -1,308 Descending Atlanta Center
Sun 12:43:37 PM 35.3231 -81.0478 18° North 261 300 6,000 -694 Descending Atlanta Center
Sun 12:44:38 PM 35.3925 -81.0708 345° North 253 291 6,000 -155 Level Atlanta Center
Sun 12:45:33 PM 35.4447 -81.0842 348° North 231 266 5,700 -939 Descending Atlanta Center
Sun 12:46:33 PM 35.4578 -81.0147 77° East 192 221 4,200 -1,409 Descending Atlanta Center
Sun 12:47:28 PM 35.4256 -80.9828 141° Southeast 178 205 3,000 -621 Descending Atlanta Center
Sun 12:48:29 PM 35.3769 -80.9542 154° Southeast 179 206 3,000 -98 Level Atlanta Center
Sun 12:49:30 PM 35.3308 -80.9483 174° South 174 200 2,800 -472 Descending Atlanta Center
Sun 12:50:36 PM 35.2892 -80.9447 176° South 127 146 2,000 -661 Descending Atlanta Center
Sun 12:51:37 PM 35.2558 -80.9433 178° South 120 138 1,400 -590 Descending Atlanta Center
Sun 12:53:00 PM 35.2137 -80.9491 158° South  Level Estimated
Sun 01:00:00 PM 35.2137 -80.9491 158° South  Level Estimated

Login

Don't have an account? Register now (free) for customized features, flight alerts, and more!